createdAt,value
2023-02-22T00:00:59.896Z,3.60
2023-02-22T00:03:34.926Z,3.70
2023-02-22T00:06:05.153Z,3.80
2023-02-22T00:08:35.085Z,3.90
2023-02-22T00:11:08.623Z,4.00
2023-02-22T00:13:38.128Z,4.00
2023-02-22T00:16:08.215Z,4.00
2023-02-22T00:18:35.680Z,4.00
2023-02-22T00:21:03.025Z,3.90
2023-02-22T00:23:32.085Z,3.80
2023-02-22T00:26:00.221Z,3.80
2023-02-22T00:28:28.112Z,3.70
2023-02-22T00:30:55.825Z,3.70
2023-02-22T00:33:23.763Z,3.60
2023-02-22T00:35:51.208Z,3.50
2023-02-22T00:38:19.704Z,3.50
2023-02-22T00:40:47.137Z,3.50
2023-02-22T00:43:15.865Z,3.50
2023-02-22T00:45:43.608Z,3.40
2023-02-22T00:48:11.556Z,3.40
2023-02-22T00:50:39.184Z,3.40
2023-02-22T00:53:07.768Z,3.40
2023-02-22T00:55:36.976Z,3.30
2023-02-22T00:58:05.603Z,3.30
2023-02-22T01:00:36.496Z,3.30
2023-02-22T01:03:09.469Z,3.30
2023-02-22T01:05:38.346Z,3.40
2023-02-22T01:08:07.916Z,3.40
2023-02-22T01:10:36.078Z,3.40
2023-02-22T01:13:09.295Z,3.40
2023-02-22T01:15:39.337Z,3.40
2023-02-22T01:18:07.451Z,3.40
2023-02-22T01:20:35.316Z,3.50
2023-02-22T01:23:07.009Z,3.50
2023-02-22T01:25:35.741Z,3.60
2023-02-22T01:28:06.146Z,3.50
2023-02-22T01:30:35.250Z,3.50
2023-02-22T01:33:05.864Z,3.40
2023-02-22T01:35:36.327Z,3.40
2023-02-22T01:38:03.931Z,3.30
2023-02-22T01:40:41.860Z,3.30
2023-02-22T01:43:22.945Z,3.20
2023-02-22T01:45:56.874Z,3.10
2023-02-22T01:48:27.202Z,3.10
2023-02-22T01:51:22.572Z,3.10
2023-02-22T01:53:58.919Z,3.00
2023-02-22T01:56:29.321Z,3.00
2023-02-22T01:59:03.476Z,3.00
2023-02-22T02:01:31.075Z,3.00
2023-02-22T02:04:02.590Z,3.00
2023-02-22T02:06:33.568Z,2.90
2023-02-22T02:09:04.870Z,2.90
2023-02-22T02:11:33.672Z,3.00
2023-02-22T02:14:01.235Z,2.90
2023-02-22T02:16:40.159Z,3.00
2023-02-22T02:19:17.365Z,3.00
2023-02-22T02:22:07.427Z,3.00
2023-02-22T02:24:51.596Z,2.80
2023-02-22T02:27:32.343Z,2.90
2023-02-22T02:30:35.369Z,3.00
2023-02-22T02:33:12.472Z,3.20
2023-02-22T02:36:00.851Z,3.20
2023-02-22T02:38:43.005Z,3.10
2023-02-22T02:41:29.909Z,3.10
2023-02-22T02:44:07.700Z,3.00
2023-02-22T02:47:00.285Z,3.00
2023-02-22T02:49:58.455Z,3.00
2023-02-22T02:52:28.478Z,3.10
2023-02-22T02:54:56.792Z,3.20
2023-02-22T02:57:24.782Z,3.20
2023-02-22T02:59:51.964Z,3.30
2023-02-22T03:02:48.952Z,3.20
2023-02-22T03:06:11.553Z,3.20
2023-02-22T03:08:52.528Z,3.10
2023-02-22T03:11:29.284Z,2.90
2023-02-22T03:14:22.141Z,2.80
2023-02-22T03:16:57.395Z,2.80
2023-02-22T03:19:36.549Z,2.80
2023-02-22T03:22:09.501Z,2.90
2023-02-22T03:24:45.663Z,3.00
2023-02-22T03:27:21.507Z,3.10
2023-02-22T03:29:53.828Z,3.20
2023-02-22T03:32:25.394Z,3.20
2023-02-22T03:35:01.548Z,3.40
2023-02-22T03:37:34.276Z,3.40
2023-02-22T03:40:14.023Z,3.50
2023-02-22T03:42:57.057Z,3.60
2023-02-22T03:45:28.928Z,3.70
2023-02-22T03:48:06.361Z,3.70
2023-02-22T03:50:37.250Z,3.70
2023-02-22T03:53:07.475Z,3.70
2023-02-22T03:55:37.385Z,3.60
2023-02-22T03:58:10.866Z,3.50
2023-02-22T04:00:39.188Z,3.50
2023-02-22T04:03:06.470Z,3.50
2023-02-22T04:05:34.061Z,3.50
2023-02-22T04:08:02.130Z,3.70
2023-02-22T04:10:31.741Z,3.80
2023-02-22T04:13:00.246Z,3.70
2023-02-22T04:15:27.782Z,3.70
2023-02-22T04:18:02.242Z,3.70
2023-02-22T04:20:31.790Z,3.50
2023-02-22T04:23:04.185Z,3.40
2023-02-22T04:25:31.927Z,3.30
2023-02-22T04:28:07.983Z,3.30
2023-02-22T04:30:43.963Z,3.40
2023-02-22T04:33:16.124Z,3.40
2023-02-22T04:35:43.686Z,3.40
2023-02-22T04:38:10.983Z,3.50
2023-02-22T04:40:40.364Z,3.60
2023-02-22T04:43:08.082Z,3.70
2023-02-22T04:45:36.025Z,3.50
2023-02-22T04:48:04.730Z,3.50
2023-02-22T04:50:32.268Z,3.50
2023-02-22T04:52:59.522Z,3.50
2023-02-22T04:55:28.189Z,3.40
2023-02-22T04:57:56.733Z,3.30
2023-02-22T05:00:24.566Z,3.10
2023-02-22T05:02:56.267Z,3.00
2023-02-22T05:05:24.135Z,2.90
2023-02-22T05:07:51.476Z,2.80
2023-02-22T05:10:19.283Z,2.70
2023-02-22T05:12:46.599Z,2.60
2023-02-22T05:15:19.184Z,2.50
2023-02-22T05:17:46.640Z,2.50
2023-02-22T05:20:27.914Z,2.50
2023-02-22T05:22:55.987Z,2.60
2023-02-22T05:25:24.457Z,2.60
2023-02-22T05:27:53.843Z,2.70
2023-02-22T05:30:25.480Z,2.70
2023-02-22T05:32:53.235Z,2.60
2023-02-22T05:35:22.656Z,2.60
2023-02-22T05:37:52.789Z,2.70
2023-02-22T05:40:22.842Z,2.80
2023-02-22T05:42:51.578Z,3.00
2023-02-22T05:45:21.951Z,3.20
2023-02-22T05:47:49.212Z,3.20
2023-02-22T05:50:17.608Z,3.30
2023-02-22T05:52:44.794Z,3.30
2023-02-22T05:55:15.591Z,3.30
2023-02-22T05:57:42.942Z,3.40
2023-02-22T06:00:16.478Z,3.50
2023-02-22T06:02:43.789Z,3.50
2023-02-22T06:05:11.592Z,3.60
2023-02-22T06:07:38.855Z,3.60
2023-02-22T06:10:06.510Z,3.60
2023-02-22T06:12:33.762Z,3.70
2023-02-22T06:15:01.261Z,3.80
2023-02-22T06:17:28.611Z,3.50
2023-02-22T06:19:56.341Z,3.40
2023-02-22T06:22:23.500Z,3.30
2023-02-22T06:24:51.918Z,3.30
2023-02-22T06:27:20.292Z,3.30
2023-02-22T06:29:47.860Z,3.40
2023-02-22T06:32:15.121Z,3.30
2023-02-22T06:34:42.593Z,3.20
2023-02-22T06:37:10.938Z,3.10
2023-02-22T06:39:38.360Z,3.10
2023-02-22T06:42:05.839Z,3.10
2023-02-22T06:44:33.290Z,3.00
2023-02-22T06:47:01.159Z,3.00
2023-02-22T06:49:28.640Z,3.10
2023-02-22T06:51:56.137Z,3.20
2023-02-22T06:54:23.733Z,3.40
2023-02-22T06:56:50.946Z,3.60
2023-02-22T06:59:18.566Z,3.70
2023-02-22T07:01:45.860Z,3.90
2023-02-22T07:04:13.429Z,4.10
2023-02-22T07:06:46.969Z,4.40
2023-02-22T07:09:16.610Z,4.40
2023-02-22T07:11:44.368Z,4.30
2023-02-22T07:14:12.045Z,4.60
2023-02-22T07:16:39.289Z,4.90
2023-02-22T07:19:06.751Z,4.90
2023-02-22T07:21:34.069Z,4.70
2023-02-22T07:24:02.226Z,4.30
2023-02-22T07:26:30.098Z,4.30
2023-02-22T07:28:58.504Z,4.70
2023-02-22T07:31:25.763Z,4.90
2023-02-22T07:33:53.387Z,5.10
2023-02-22T07:36:20.933Z,5.50
2023-02-22T07:38:48.401Z,5.70
2023-02-22T07:41:15.810Z,5.60
2023-02-22T07:43:43.700Z,5.70
2023-02-22T07:46:10.879Z,5.60
2023-02-22T07:48:39.576Z,5.50
2023-02-22T07:51:07.585Z,5.50
2023-02-22T07:53:35.137Z,5.80
2023-02-22T07:56:05.302Z,6.00
2023-02-22T07:58:33.313Z,6.00
2023-02-22T08:01:02.205Z,6.30
2023-02-22T08:03:34.406Z,6.30
2023-02-22T08:06:04.126Z,6.00
2023-02-22T08:08:31.556Z,5.70
2023-02-22T08:10:58.837Z,5.70
2023-02-22T08:13:26.327Z,5.50
2023-02-22T08:15:54.259Z,5.90
2023-02-22T08:18:22.893Z,6.20
2023-02-22T08:20:52.381Z,6.20
2023-02-22T08:23:22.541Z,6.10
2023-02-22T08:25:49.807Z,6.40
2023-02-22T08:28:23.536Z,6.60
2023-02-22T08:30:51.361Z,6.20
2023-02-22T08:33:19.793Z,6.10
2023-02-22T08:35:51.916Z,5.70
2023-02-22T08:38:27.090Z,5.70
2023-02-22T08:40:54.570Z,6.10
2023-02-22T08:43:22.627Z,6.30
2023-02-22T08:45:51.977Z,6.20
2023-02-22T08:48:20.203Z,6.20
2023-02-22T08:50:47.464Z,5.70
2023-02-22T08:53:16.461Z,5.20
2023-02-22T08:55:44.414Z,5.30
2023-02-22T08:58:12.465Z,5.40
2023-02-22T09:00:40.636Z,5.50
2023-02-22T09:03:10.847Z,6.00
2023-02-22T09:05:39.401Z,6.50
2023-02-22T09:08:07.248Z,6.80
2023-02-22T09:10:35.338Z,7.20
2023-02-22T09:13:04.199Z,7.30
2023-02-22T09:15:32.886Z,6.40
2023-02-22T09:18:02.254Z,5.90
2023-02-22T09:20:29.884Z,5.40
2023-02-22T09:22:57.797Z,5.30
2023-02-22T09:25:25.276Z,5.40
2023-02-22T09:27:53.717Z,6.00
2023-02-22T09:30:21.742Z,6.00
2023-02-22T09:32:51.170Z,5.70
2023-02-22T09:35:18.526Z,6.20
2023-02-22T09:37:46.057Z,6.40
2023-02-22T09:40:24.809Z,6.50
2023-02-22T09:43:03.930Z,6.40
2023-02-22T09:46:00.198Z,6.20
2023-02-22T09:48:27.965Z,6.00
2023-02-22T09:50:59.636Z,6.30
2023-02-22T09:53:32.217Z,6.60
2023-02-22T09:56:06.734Z,6.30
2023-02-22T09:58:42.941Z,6.50
2023-02-22T10:01:28.723Z,6.80
2023-02-22T10:04:10.688Z,6.80
2023-02-22T10:06:42.177Z,6.80
2023-02-22T10:09:11.064Z,6.90
2023-02-22T10:11:49.272Z,6.90
2023-02-22T10:14:38.569Z,7.00
2023-02-22T10:17:14.273Z,7.30
2023-02-22T10:20:13.486Z,6.90
2023-02-22T10:22:49.408Z,6.40
2023-02-22T10:25:21.279Z,6.70
2023-02-22T10:28:13.358Z,6.60
2023-02-22T10:30:46.604Z,6.50
2023-02-22T10:33:21.977Z,5.80
2023-02-22T10:35:51.987Z,6.10
2023-02-22T10:38:20.954Z,6.80
2023-02-22T10:41:17.294Z,6.90
2023-02-22T10:43:45.044Z,6.40
2023-02-22T10:46:16.624Z,6.20
2023-02-22T10:48:47.434Z,6.00
2023-02-22T10:51:14.979Z,6.60
2023-02-22T10:53:42.275Z,6.60
2023-02-22T10:56:22.441Z,6.30
2023-02-22T10:59:00.557Z,6.60
2023-02-22T11:01:37.713Z,6.70
2023-02-22T11:04:14.937Z,6.80
2023-02-22T11:06:45.732Z,7.60
2023-02-22T11:09:19.297Z,7.70
2023-02-22T11:11:48.962Z,7.70
2023-02-22T11:14:28.530Z,8.40
2023-02-22T11:16:58.664Z,8.70
2023-02-22T11:19:30.975Z,7.80
2023-02-22T11:22:23.724Z,7.10
2023-02-22T11:25:02.396Z,7.30
2023-02-22T11:27:40.468Z,7.50
2023-02-22T11:30:32.026Z,6.80
2023-02-22T11:33:17.168Z,7.10
2023-02-22T11:35:57.220Z,7.30
2023-02-22T11:38:37.256Z,6.70
2023-02-22T11:41:26.376Z,6.60
2023-02-22T11:43:56.930Z,6.50
2023-02-22T11:46:29.387Z,6.10
2023-02-22T11:49:06.934Z,5.80
2023-02-22T11:51:38.171Z,5.90
2023-02-22T11:54:25.493Z,6.20
2023-02-22T11:56:56.011Z,6.30
2023-02-22T11:59:26.326Z,6.50
2023-02-22T12:02:00.055Z,6.30
2023-02-22T12:04:55.466Z,6.70
2023-02-22T12:08:10.727Z,6.60
2023-02-22T12:11:14.400Z,6.50
2023-02-22T12:13:54.919Z,6.90
2023-02-22T12:16:59.205Z,6.40
2023-02-22T12:19:38.964Z,6.60
2023-02-22T12:22:36.257Z,6.20
2023-02-22T12:25:09.466Z,6.40
2023-02-22T12:27:52.005Z,6.50
2023-02-22T12:30:26.957Z,6.20
2023-02-22T12:33:00.207Z,6.60
2023-02-22T12:35:37.361Z,6.40
2023-02-22T12:38:24.352Z,6.30
2023-02-22T12:41:27.131Z,6.50
2023-02-22T12:44:10.493Z,6.70
2023-02-22T12:46:42.134Z,6.30
2023-02-22T12:49:44.513Z,6.30
2023-02-22T12:52:31.728Z,5.70
2023-02-22T12:55:35.475Z,5.40
2023-02-22T12:58:23.228Z,5.60
2023-02-22T13:01:08.143Z,6.10
2023-02-22T13:03:35.403Z,6.80
2023-02-22T13:06:30.128Z,7.30
2023-02-22T13:09:06.050Z,6.40
2023-02-22T13:11:47.794Z,6.60
2023-02-22T13:14:51.690Z,6.50
2023-02-22T13:17:31.737Z,6.50
2023-02-22T13:20:38.310Z,6.30
2023-02-22T13:23:32.152Z,6.30
2023-02-22T13:26:05.178Z,6.80
2023-02-22T13:28:44.531Z,6.70
2023-02-22T13:31:12.014Z,6.40
2023-02-22T13:34:06.230Z,6.00
2023-02-22T13:36:42.052Z,5.70
2023-02-22T13:39:15.478Z,5.80
2023-02-22T13:42:22.535Z,5.40
2023-02-22T13:45:08.276Z,6.00
2023-02-22T13:48:23.405Z,6.10
2023-02-22T13:51:36.374Z,6.10
2023-02-22T13:54:08.808Z,6.20
2023-02-22T13:56:41.959Z,6.10
2023-02-22T13:59:24.073Z,6.00
2023-02-22T14:01:53.519Z,6.00
2023-02-22T14:04:29.719Z,6.20
2023-02-22T14:07:02.093Z,5.80
2023-02-22T14:09:46.996Z,5.70
2023-02-22T14:12:30.045Z,5.70
2023-02-22T14:15:28.143Z,5.60
2023-02-22T14:18:01.931Z,5.50
2023-02-22T14:20:40.365Z,5.60
2023-02-22T14:23:29.920Z,5.60
2023-02-22T14:26:28.173Z,5.80
2023-02-22T14:29:10.903Z,6.20
2023-02-22T14:31:41.197Z,6.30
2023-02-22T14:34:21.377Z,5.90
2023-02-22T14:36:51.566Z,5.60
2023-02-22T14:39:39.596Z,5.30
2023-02-22T14:42:18.544Z,5.20
2023-02-22T14:44:56.198Z,5.00
2023-02-22T14:47:43.820Z,4.80
2023-02-22T14:50:16.903Z,4.80
2023-02-22T14:52:47.661Z,5.00
2023-02-22T14:55:25.704Z,5.00
2023-02-22T14:58:08.840Z,5.00
2023-02-22T15:00:41.993Z,4.80
2023-02-22T15:03:38.522Z,5.00
2023-02-22T15:06:20.900Z,4.80
2023-02-22T15:09:03.847Z,4.90
2023-02-22T15:11:32.550Z,4.80
2023-02-22T15:14:01.410Z,4.70
2023-02-22T15:16:33.296Z,4.80
2023-02-22T15:19:07.705Z,4.70
2023-02-22T15:21:35.877Z,4.80
2023-02-22T15:24:08.080Z,4.60
2023-02-22T15:26:42.491Z,4.50
2023-02-22T15:29:21.119Z,4.50
2023-02-22T15:31:49.306Z,4.50
2023-02-22T15:34:24.720Z,4.40
2023-02-22T15:36:57.664Z,4.30
2023-02-22T15:39:29.376Z,4.20
2023-02-22T15:42:02.580Z,4.00
2023-02-22T15:44:34.409Z,4.00
2023-02-22T15:47:02.600Z,3.90
2023-02-22T15:49:34.328Z,3.80
2023-02-22T15:52:10.242Z,3.80
2023-02-22T15:54:51.379Z,3.70
2023-02-22T15:57:23.060Z,3.70
2023-02-22T15:59:53.890Z,3.60
2023-02-22T16:02:42.346Z,3.60
2023-02-22T16:05:13.224Z,3.50
2023-02-22T16:07:48.743Z,3.40
2023-02-22T16:10:33.494Z,3.40
2023-02-22T16:13:31.127Z,3.30
2023-02-22T16:16:24.794Z,3.20
2023-02-22T16:19:12.824Z,3.20
2023-02-22T16:22:02.916Z,3.20
2023-02-22T16:24:31.877Z,3.00
2023-02-22T16:27:14.472Z,3.00
2023-02-22T16:29:42.931Z,2.90
2023-02-22T16:32:10.407Z,2.70
2023-02-22T16:34:38.138Z,2.60
2023-02-22T16:37:05.351Z,2.50
2023-02-22T16:39:36.036Z,2.50
2023-02-22T16:42:05.229Z,2.40
2023-02-22T16:44:34.627Z,2.30
2023-02-22T16:47:01.933Z,2.20
2023-02-22T16:49:29.713Z,2.20
2023-02-22T16:52:01.535Z,2.10
2023-02-22T16:54:36.583Z,2.00
2023-02-22T16:57:05.310Z,2.00
2023-02-22T16:59:38.738Z,2.00
2023-02-22T17:02:10.265Z,2.00
2023-02-22T17:04:38.127Z,2.00
2023-02-22T17:07:06.003Z,1.90
2023-02-22T17:09:34.102Z,1.90
2023-02-22T17:12:02.637Z,1.90
2023-02-22T17:14:35.549Z,1.80
2023-02-22T17:17:03.946Z,1.70
2023-02-22T17:19:31.830Z,1.60
2023-02-22T17:21:59.667Z,1.60
2023-02-22T17:24:30.877Z,1.50
2023-02-22T17:26:59.881Z,1.40
2023-02-22T17:29:29.477Z,1.40
2023-02-22T17:31:57.770Z,1.40
2023-02-22T17:34:26.093Z,1.30
2023-02-22T17:36:54.097Z,1.30
2023-02-22T17:39:22.127Z,1.20
2023-02-22T17:41:55.131Z,1.20
2023-02-22T17:44:23.275Z,1.20
2023-02-22T17:46:54.085Z,1.20
2023-02-22T17:49:21.922Z,1.20
2023-02-22T17:51:50.001Z,1.10
2023-02-22T17:54:18.715Z,1.00
2023-02-22T17:56:46.462Z,1.00
2023-02-22T17:59:14.762Z,1.00
2023-02-22T18:01:44.136Z,1.00
2023-02-22T18:04:12.564Z,0.90
2023-02-22T18:06:40.436Z,0.90
2023-02-22T18:09:11.211Z,0.90
2023-02-22T18:11:40.392Z,0.80
2023-02-22T18:14:10.891Z,0.80
2023-02-22T18:16:39.580Z,0.80
2023-02-22T18:19:07.741Z,0.80
2023-02-22T18:21:35.478Z,0.80
2023-02-22T18:24:04.280Z,0.70
2023-02-22T18:26:32.794Z,0.80
2023-02-22T18:29:01.301Z,0.80
2023-02-22T18:31:29.424Z,0.70
2023-02-22T18:33:58.283Z,0.80
2023-02-22T18:36:26.202Z,0.80
2023-02-22T18:38:55.204Z,0.80
2023-02-22T18:41:26.877Z,0.80
2023-02-22T18:43:57.703Z,0.80
2023-02-22T18:46:25.832Z,0.80
2023-02-22T18:48:56.411Z,0.80
2023-02-22T18:51:27.797Z,0.70
2023-02-22T18:54:00.764Z,0.80
2023-02-22T18:56:34.240Z,0.70
2023-02-22T18:59:04.396Z,0.70
2023-02-22T19:01:38.918Z,0.80
2023-02-22T19:04:12.738Z,0.80
2023-02-22T19:06:41.265Z,0.90
2023-02-22T19:09:09.530Z,1.00
2023-02-22T19:11:37.921Z,1.00
2023-02-22T19:14:05.835Z,1.10
2023-02-22T19:16:33.771Z,1.10
2023-02-22T19:19:01.968Z,1.00
2023-02-22T19:21:31.870Z,1.00
2023-02-22T19:24:02.816Z,1.00
2023-02-22T19:26:33.387Z,1.10
2023-02-22T19:29:05.422Z,1.00
2023-02-22T19:31:34.164Z,1.00
2023-02-22T19:34:05.261Z,1.10
2023-02-22T19:36:33.388Z,1.10
2023-02-22T19:39:02.157Z,1.00
2023-02-22T19:41:30.014Z,1.00
2023-02-22T19:43:58.582Z,0.90
2023-02-22T19:46:26.555Z,1.00
2023-02-22T19:48:58.205Z,1.00
2023-02-22T19:51:28.744Z,1.00
2023-02-22T19:54:02.502Z,1.10
2023-02-22T19:56:31.201Z,1.10
2023-02-22T19:59:13.447Z,1.20
2023-02-22T20:01:44.490Z,1.30
2023-02-22T20:04:18.495Z,1.40
2023-02-22T20:06:47.647Z,1.50
2023-02-22T20:09:18.192Z,1.50
2023-02-22T20:11:46.698Z,1.50
2023-02-22T20:14:19.056Z,1.40
2023-02-22T20:16:46.412Z,1.50
2023-02-22T20:19:13.857Z,1.40
2023-02-22T20:21:41.134Z,1.50
2023-02-22T20:24:12.015Z,1.50
2023-02-22T20:26:40.079Z,1.50
2023-02-22T20:29:09.189Z,1.40
2023-02-22T20:31:38.079Z,1.30
2023-02-22T20:34:11.820Z,1.30
2023-02-22T20:36:41.453Z,1.40
2023-02-22T20:39:15.837Z,1.40
2023-02-22T20:41:46.163Z,1.30
2023-02-22T20:44:16.560Z,1.30
2023-02-22T20:46:45.119Z,1.40
2023-02-22T20:49:17.194Z,1.40
2023-02-22T20:51:45.904Z,1.50
2023-02-22T20:54:14.269Z,1.50
2023-02-22T20:56:43.991Z,1.60
2023-02-22T20:59:16.549Z,1.60
2023-02-22T21:01:44.364Z,1.70
2023-02-22T21:04:13.528Z,1.70
2023-02-22T21:06:41.185Z,1.60
2023-02-22T21:09:14.233Z,1.40
2023-02-22T21:11:42.163Z,1.40
2023-02-22T21:14:14.784Z,1.40
2023-02-22T21:16:42.154Z,1.20
2023-02-22T21:19:09.664Z,1.20
2023-02-22T21:21:36.961Z,1.20
2023-02-22T21:24:04.631Z,1.20
2023-02-22T21:26:33.900Z,1.10
2023-02-22T21:29:04.832Z,1.20
2023-02-22T21:31:33.956Z,1.30
2023-02-22T21:34:02.313Z,1.30
2023-02-22T21:36:30.449Z,1.40
2023-02-22T21:39:00.531Z,1.30
2023-02-22T21:41:31.270Z,1.20
2023-02-22T21:43:59.593Z,1.20
2023-02-22T21:46:29.406Z,1.20
2023-02-22T21:48:58.826Z,1.20
2023-02-22T21:51:32.072Z,1.10
2023-02-22T21:54:08.295Z,1.00
2023-02-22T21:56:38.113Z,0.90
2023-02-22T21:59:15.778Z,0.80
2023-02-22T22:01:50.008Z,0.80
2023-02-22T22:04:20.110Z,0.70
2023-02-22T22:06:50.898Z,0.60
2023-02-22T22:09:20.210Z,0.60
2023-02-22T22:11:58.402Z,0.60
2023-02-22T22:14:27.173Z,0.50
2023-02-22T22:16:58.591Z,0.50
2023-02-22T22:19:27.477Z,0.40
2023-02-22T22:21:54.975Z,0.40
2023-02-22T22:24:23.414Z,0.40
2023-02-22T22:26:54.672Z,0.40
2023-02-22T22:29:24.667Z,0.40
2023-02-22T22:31:52.657Z,0.40
2023-02-22T22:34:20.614Z,0.40
2023-02-22T22:36:48.025Z,0.40
2023-02-22T22:39:16.153Z,0.50
2023-02-22T22:41:44.302Z,0.40
2023-02-22T22:44:15.278Z,0.30
2023-02-22T22:46:43.330Z,0.40
2023-02-22T22:49:13.678Z,0.30
2023-02-22T22:51:42.589Z,0.30
2023-02-22T22:54:10.730Z,0.30
2023-02-22T22:56:38.762Z,0.30
2023-02-22T22:59:08.064Z,0.20
2023-02-22T23:01:44.620Z,0.20
2023-02-22T23:04:16.393Z,0.00
2023-02-22T23:06:46.938Z,0.00
2023-02-22T23:09:22.009Z,0.00
2023-02-22T23:11:53.331Z,0.00
2023-02-22T23:14:30.674Z,0.10
2023-02-22T23:17:03.139Z,0.20
2023-02-22T23:19:35.724Z,0.20
2023-02-22T23:22:05.435Z,0.20
2023-02-22T23:24:36.250Z,0.20
2023-02-22T23:27:07.247Z,0.20
2023-02-22T23:29:38.627Z,0.30
2023-02-22T23:32:06.468Z,0.40
2023-02-22T23:34:35.933Z,0.50
2023-02-22T23:37:03.549Z,0.60
2023-02-22T23:39:31.012Z,0.70
2023-02-22T23:42:03.290Z,0.80
2023-02-22T23:44:30.854Z,0.70
2023-02-22T23:46:58.080Z,0.60
2023-02-22T23:49:32.733Z,0.60
2023-02-22T23:51:59.939Z,0.60
2023-02-22T23:54:35.962Z,0.70
2023-02-22T23:57:04.536Z,0.70
2023-02-22T23:59:33.482Z,0.80
